sensor_id;sensor_type;location;lat;lon;timestamp;temperature;humidity
5429;DHT22;2737;52.386;9.980;2022-12-17T00:00:51;-2.70;99.90
5429;DHT22;2737;52.386;9.980;2022-12-17T00:03:35;-2.70;99.90
5429;DHT22;2737;52.386;9.980;2022-12-17T00:06:21;-2.70;99.90
5429;DHT22;2737;52.386;9.980;2022-12-17T00:09:05;-2.70;99.90
5429;DHT22;2737;52.386;9.980;2022-12-17T00:11:50;-2.70;99.90
5429;DHT22;2737;52.386;9.980;2022-12-17T00:14:34;-2.70;99.90
5429;DHT22;2737;52.386;9.980;2022-12-17T00:17:19;-2.70;99.90
5429;DHT22;2737;52.386;9.980;2022-12-17T00:20:04;-2.70;99.90
5429;DHT22;2737;52.386;9.980;2022-12-17T00:22:57;-2.80;99.90
5429;DHT22;2737;52.386;9.980;2022-12-17T00:25:41;-2.70;99.90
5429;DHT22;2737;52.386;9.980;2022-12-17T00:28:26;-2.70;99.90
5429;DHT22;2737;52.386;9.980;2022-12-17T00:31:22;-2.80;99.90
5429;DHT22;2737;52.386;9.980;2022-12-17T00:34:06;-2.90;99.90
5429;DHT22;2737;52.386;9.980;2022-12-17T00:36:51;-2.90;99.90
5429;DHT22;2737;52.386;9.980;2022-12-17T00:39:37;-2.90;99.90
5429;DHT22;2737;52.386;9.980;2022-12-17T00:42:22;-2.80;99.90
5429;DHT22;2737;52.386;9.980;2022-12-17T00:45:07;-2.80;99.90
5429;DHT22;2737;52.386;9.980;2022-12-17T00:47:51;-2.80;99.90
5429;DHT22;2737;52.386;9.980;2022-12-17T00:50:36;-2.80;99.90
5429;DHT22;2737;52.386;9.980;2022-12-17T00:53:20;-2.80;99.90
5429;DHT22;2737;52.386;9.980;2022-12-17T00:56:06;-2.80;99.90
5429;DHT22;2737;52.386;9.980;2022-12-17T00:58:51;-2.80;99.90
5429;DHT22;2737;52.386;9.980;2022-12-17T01:01:35;-2.90;99.90
5429;DHT22;2737;52.386;9.980;2022-12-17T01:04:20;-2.90;99.90
5429;DHT22;2737;52.386;9.980;2022-12-17T01:07:05;-2.90;99.90
5429;DHT22;2737;52.386;9.980;2022-12-17T01:09:49;-2.90;99.90
5429;DHT22;2737;52.386;9.980;2022-12-17T01:12:35;-2.90;99.90
5429;DHT22;2737;52.386;9.980;2022-12-17T01:15:20;-2.90;99.90
5429;DHT22;2737;52.386;9.980;2022-12-17T01:18:04;-2.90;99.90
5429;DHT22;2737;52.386;9.980;2022-12-17T01:20:55;-2.90;99.90
5429;DHT22;2737;52.386;9.980;2022-12-17T01:23:39;-2.90;99.90
5429;DHT22;2737;52.386;9.980;2022-12-17T01:26:24;-3.00;99.90
5429;DHT22;2737;52.386;9.980;2022-12-17T01:29:10;-3.00;99.90
5429;DHT22;2737;52.386;9.980;2022-12-17T01:31:54;-3.00;99.90
5429;DHT22;2737;52.386;9.980;2022-12-17T01:34:38;-3.10;99.90
5429;DHT22;2737;52.386;9.980;2022-12-17T01:37:23;-3.10;99.90
5429;DHT22;2737;52.386;9.980;2022-12-17T01:40:08;-3.10;99.90
5429;DHT22;2737;52.386;9.980;2022-12-17T01:42:53;-3.10;99.90
5429;DHT22;2737;52.386;9.980;2022-12-17T01:45:42;-3.00;99.90
5429;DHT22;2737;52.386;9.980;2022-12-17T01:48:29;-3.00;99.90
5429;DHT22;2737;52.386;9.980;2022-12-17T01:51:15;-3.00;99.90
5429;DHT22;2737;52.386;9.980;2022-12-17T01:54:01;-3.00;99.90
5429;DHT22;2737;52.386;9.980;2022-12-17T01:56:46;-3.00;99.90
5429;DHT22;2737;52.386;9.980;2022-12-17T01:59:37;-3.00;99.90
5429;DHT22;2737;52.386;9.980;2022-12-17T02:02:26;-3.00;99.90
5429;DHT22;2737;52.386;9.980;2022-12-17T02:05:11;-3.00;99.90
5429;DHT22;2737;52.386;9.980;2022-12-17T02:08:03;-3.00;99.90
5429;DHT22;2737;52.386;9.980;2022-12-17T02:11:01;-3.00;99.90
5429;DHT22;2737;52.386;9.980;2022-12-17T02:13:56;-3.00;99.90
5429;DHT22;2737;52.386;9.980;2022-12-17T02:16:46;-3.00;99.90
5429;DHT22;2737;52.386;9.980;2022-12-17T02:19:40;-3.00;99.90
5429;DHT22;2737;52.386;9.980;2022-12-17T02:22:34;-3.10;99.90
5429;DHT22;2737;52.386;9.980;2022-12-17T02:25:27;-3.00;99.90
5429;DHT22;2737;52.386;9.980;2022-12-17T02:28:16;-3.10;99.90
5429;DHT22;2737;52.386;9.980;2022-12-17T02:31:01;-3.10;99.90
5429;DHT22;2737;52.386;9.980;2022-12-17T02:33:46;-3.00;99.90
5429;DHT22;2737;52.386;9.980;2022-12-17T02:36:33;-3.00;99.90
5429;DHT22;2737;52.386;9.980;2022-12-17T02:39:18;-3.00;99.90
5429;DHT22;2737;52.386;9.980;2022-12-17T02:42:02;-3.00;99.90
5429;DHT22;2737;52.386;9.980;2022-12-17T02:44:49;-3.00;99.90
5429;DHT22;2737;52.386;9.980;2022-12-17T02:47:35;-3.00;99.90
5429;DHT22;2737;52.386;9.980;2022-12-17T02:50:20;-3.00;99.90
5429;DHT22;2737;52.386;9.980;2022-12-17T02:53:04;-3.00;99.90
5429;DHT22;2737;52.386;9.980;2022-12-17T02:55:49;-3.00;99.90
5429;DHT22;2737;52.386;9.980;2022-12-17T02:58:34;-3.00;99.90
5429;DHT22;2737;52.386;9.980;2022-12-17T03:01:20;-3.00;99.90
5429;DHT22;2737;52.386;9.980;2022-12-17T03:04:04;-3.00;99.90
5429;DHT22;2737;52.386;9.980;2022-12-17T03:06:48;-3.00;99.90
5429;DHT22;2737;52.386;9.980;2022-12-17T03:09:33;-3.00;99.90
5429;DHT22;2737;52.386;9.980;2022-12-17T03:12:17;-3.00;99.90
5429;DHT22;2737;52.386;9.980;2022-12-17T03:15:02;-3.00;99.90
5429;DHT22;2737;52.386;9.980;2022-12-17T03:17:48;-3.00;99.90
5429;DHT22;2737;52.386;9.980;2022-12-17T03:20:32;-3.00;99.90
5429;DHT22;2737;52.386;9.980;2022-12-17T03:23:17;-3.00;99.90
5429;DHT22;2737;52.386;9.980;2022-12-17T03:26:01;-3.00;99.90
5429;DHT22;2737;52.386;9.980;2022-12-17T03:28:47;-3.00;99.90
5429;DHT22;2737;52.386;9.980;2022-12-17T03:31:32;-3.00;99.90
5429;DHT22;2737;52.386;9.980;2022-12-17T03:34:17;-3.00;99.90
5429;DHT22;2737;52.386;9.980;2022-12-17T03:37:03;-3.00;99.90
5429;DHT22;2737;52.386;9.980;2022-12-17T03:39:47;-3.00;99.90
5429;DHT22;2737;52.386;9.980;2022-12-17T03:42:32;-3.00;99.90
5429;DHT22;2737;52.386;9.980;2022-12-17T03:45:16;-3.00;99.90
5429;DHT22;2737;52.386;9.980;2022-12-17T03:48:08;-3.00;99.90
5429;DHT22;2737;52.386;9.980;2022-12-17T03:50:54;-3.00;99.90
5429;DHT22;2737;52.386;9.980;2022-12-17T03:53:39;-3.00;99.90
5429;DHT22;2737;52.386;9.980;2022-12-17T03:56:24;-3.00;99.90
5429;DHT22;2737;52.386;9.980;2022-12-17T03:59:09;-3.00;99.90
5429;DHT22;2737;52.386;9.980;2022-12-17T04:01:53;-2.90;99.90
5429;DHT22;2737;52.386;9.980;2022-12-17T04:04:38;-2.90;99.90
5429;DHT22;2737;52.386;9.980;2022-12-17T04:07:24;-3.00;99.90
5429;DHT22;2737;52.386;9.980;2022-12-17T04:10:08;-3.00;99.90
5429;DHT22;2737;52.386;9.980;2022-12-17T04:12:53;-3.00;99.90
5429;DHT22;2737;52.386;9.980;2022-12-17T04:15:37;-3.00;99.90
5429;DHT22;2737;52.386;9.980;2022-12-17T04:18:21;-3.00;99.90
5429;DHT22;2737;52.386;9.980;2022-12-17T04:21:06;-2.90;99.90
5429;DHT22;2737;52.386;9.980;2022-12-17T04:23:52;-2.90;99.90
5429;DHT22;2737;52.386;9.980;2022-12-17T04:26:36;-2.90;99.90
5429;DHT22;2737;52.386;9.980;2022-12-17T04:29:21;-2.90;99.90
5429;DHT22;2737;52.386;9.980;2022-12-17T04:32:05;-2.90;99.90
5429;DHT22;2737;52.386;9.980;2022-12-17T04:34:50;-3.10;99.90
5429;DHT22;2737;52.386;9.980;2022-12-17T04:37:34;-3.10;99.90
5429;DHT22;2737;52.386;9.980;2022-12-17T04:40:20;-3.00;99.90
5429;DHT22;2737;52.386;9.980;2022-12-17T04:43:05;-3.00;99.90
5429;DHT22;2737;52.386;9.980;2022-12-17T04:45:50;-3.00;99.90
5429;DHT22;2737;52.386;9.980;2022-12-17T04:48:34;-3.00;99.90
5429;DHT22;2737;52.386;9.980;2022-12-17T04:51:19;-2.90;99.90
5429;DHT22;2737;52.386;9.980;2022-12-17T04:54:00;-2.90;99.90
5429;DHT22;2737;52.386;9.980;2022-12-17T04:56:46;-2.90;99.90
5429;DHT22;2737;52.386;9.980;2022-12-17T04:59:30;-2.90;99.90
5429;DHT22;2737;52.386;9.980;2022-12-17T05:02:14;-2.90;99.90
5429;DHT22;2737;52.386;9.980;2022-12-17T05:04:59;-2.90;99.90
5429;DHT22;2737;52.386;9.980;2022-12-17T05:07:43;-3.00;99.90
5429;DHT22;2737;52.386;9.980;2022-12-17T05:10:28;-2.90;99.90
5429;DHT22;2737;52.386;9.980;2022-12-17T05:13:13;-3.00;99.90
5429;DHT22;2737;52.386;9.980;2022-12-17T05:15:58;-3.00;99.90
5429;DHT22;2737;52.386;9.980;2022-12-17T05:18:42;-3.00;99.90
5429;DHT22;2737;52.386;9.980;2022-12-17T05:21:27;-3.00;99.90
5429;DHT22;2737;52.386;9.980;2022-12-17T05:24:11;-3.00;99.90
5429;DHT22;2737;52.386;9.980;2022-12-17T05:26:55;-3.00;99.90
5429;DHT22;2737;52.386;9.980;2022-12-17T05:29:41;-3.00;99.90
5429;DHT22;2737;52.386;9.980;2022-12-17T05:32:25;-3.00;99.90
5429;DHT22;2737;52.386;9.980;2022-12-17T05:35:10;-3.00;99.90
5429;DHT22;2737;52.386;9.980;2022-12-17T05:37:54;-3.00;99.90
5429;DHT22;2737;52.386;9.980;2022-12-17T05:40:45;-3.00;99.90
5429;DHT22;2737;52.386;9.980;2022-12-17T05:43:30;-2.90;99.90
5429;DHT22;2737;52.386;9.980;2022-12-17T05:46:15;-2.90;99.90
5429;DHT22;2737;52.386;9.980;2022-12-17T05:48:56;-2.90;99.90
5429;DHT22;2737;52.386;9.980;2022-12-17T05:51:41;-2.90;99.90
5429;DHT22;2737;52.386;9.980;2022-12-17T05:54:25;-2.90;99.90
5429;DHT22;2737;52.386;9.980;2022-12-17T05:57:09;-2.90;99.90
5429;DHT22;2737;52.386;9.980;2022-12-17T05:59:54;-2.90;99.90
5429;DHT22;2737;52.386;9.980;2022-12-17T06:02:40;-2.90;99.90
5429;DHT22;2737;52.386;9.980;2022-12-17T06:05:24;-2.90;99.90
5429;DHT22;2737;52.386;9.980;2022-12-17T06:08:09;-2.80;99.90
5429;DHT22;2737;52.386;9.980;2022-12-17T06:10:57;-2.90;99.90
5429;DHT22;2737;52.386;9.980;2022-12-17T06:13:42;-2.90;99.90
5429;DHT22;2737;52.386;9.980;2022-12-17T06:16:26;-2.90;99.90
5429;DHT22;2737;52.386;9.980;2022-12-17T06:19:24;-2.90;99.90
5429;DHT22;2737;52.386;9.980;2022-12-17T06:22:08;-3.00;99.90
5429;DHT22;2737;52.386;9.980;2022-12-17T06:24:53;-3.10;99.90
5429;DHT22;2737;52.386;9.980;2022-12-17T06:27:37;-3.10;99.90
5429;DHT22;2737;52.386;9.980;2022-12-17T06:30:22;-3.20;99.90
5429;DHT22;2737;52.386;9.980;2022-12-17T06:33:08;-3.20;99.90
5429;DHT22;2737;52.386;9.980;2022-12-17T06:35:56;-3.30;99.90
5429;DHT22;2737;52.386;9.980;2022-12-17T06:38:41;-3.20;99.90
5429;DHT22;2737;52.386;9.980;2022-12-17T06:41:25;-3.30;99.90
5429;DHT22;2737;52.386;9.980;2022-12-17T06:44:09;-3.30;99.90
5429;DHT22;2737;52.386;9.980;2022-12-17T06:46:54;-3.30;99.90
5429;DHT22;2737;52.386;9.980;2022-12-17T06:49:38;-3.20;99.90
5429;DHT22;2737;52.386;9.980;2022-12-17T06:52:24;-3.20;99.90
5429;DHT22;2737;52.386;9.980;2022-12-17T06:55:09;-3.20;99.90
5429;DHT22;2737;52.386;9.980;2022-12-17T06:57:57;-3.20;99.90
5429;DHT22;2737;52.386;9.980;2022-12-17T07:00:38;-3.20;99.90
5429;DHT22;2737;52.386;9.980;2022-12-17T07:03:22;-3.30;99.90
5429;DHT22;2737;52.386;9.980;2022-12-17T07:06:21;-3.40;99.90
5429;DHT22;2737;52.386;9.980;2022-12-17T07:09:07;-3.30;99.90
5429;DHT22;2737;52.386;9.980;2022-12-17T07:11:51;-3.30;99.90
5429;DHT22;2737;52.386;9.980;2022-12-17T07:14:36;-3.30;99.90
5429;DHT22;2737;52.386;9.980;2022-12-17T07:17:20;-3.30;99.90
5429;DHT22;2737;52.386;9.980;2022-12-17T07:20:05;-3.20;99.90
5429;DHT22;2737;52.386;9.980;2022-12-17T07:22:53;-3.20;99.90
5429;DHT22;2737;52.386;9.980;2022-12-17T07:25:39;-3.20;99.90
5429;DHT22;2737;52.386;9.980;2022-12-17T07:28:24;-3.20;99.90
5429;DHT22;2737;52.386;9.980;2022-12-17T07:31:08;-3.20;99.90
5429;DHT22;2737;52.386;9.980;2022-12-17T07:33:53;-3.20;99.90
5429;DHT22;2737;52.386;9.980;2022-12-17T07:36:40;-3.20;99.90
5429;DHT22;2737;52.386;9.980;2022-12-17T07:39:24;-3.20;99.90
5429;DHT22;2737;52.386;9.980;2022-12-17T07:42:10;-3.20;99.90
5429;DHT22;2737;52.386;9.980;2022-12-17T07:44:54;-3.10;99.90
5429;DHT22;2737;52.386;9.980;2022-12-17T07:47:38;-3.20;99.90
5429;DHT22;2737;52.386;9.980;2022-12-17T07:50:23;-3.20;99.90
5429;DHT22;2737;52.386;9.980;2022-12-17T07:53:07;-3.20;99.90
5429;DHT22;2737;52.386;9.980;2022-12-17T07:55:52;-3.10;99.90
5429;DHT22;2737;52.386;9.980;2022-12-17T07:58:49;-3.20;99.90
5429;DHT22;2737;52.386;9.980;2022-12-17T08:01:34;-3.20;99.90
5429;DHT22;2737;52.386;9.980;2022-12-17T08:04:18;-3.20;99.90
5429;DHT22;2737;52.386;9.980;2022-12-17T08:07:03;-3.10;99.90
5429;DHT22;2737;52.386;9.980;2022-12-17T08:09:47;-3.10;99.90
5429;DHT22;2737;52.386;9.980;2022-12-17T08:12:31;-3.10;99.90
5429;DHT22;2737;52.386;9.980;2022-12-17T08:15:17;-3.20;99.90
5429;DHT22;2737;52.386;9.980;2022-12-17T08:18:02;-3.10;99.90
5429;DHT22;2737;52.386;9.980;2022-12-17T08:20:46;-3.10;99.90
5429;DHT22;2737;52.386;9.980;2022-12-17T08:23:31;-3.10;99.90
5429;DHT22;2737;52.386;9.980;2022-12-17T08:26:15;-3.10;99.90
5429;DHT22;2737;52.386;9.980;2022-12-17T08:29:00;-3.00;99.90
5429;DHT22;2737;52.386;9.980;2022-12-17T08:31:46;-3.00;99.90
5429;DHT22;2737;52.386;9.980;2022-12-17T08:34:30;-3.00;99.90
5429;DHT22;2737;52.386;9.980;2022-12-17T08:37:14;-2.90;99.90
5429;DHT22;2737;52.386;9.980;2022-12-17T08:39:59;-2.90;99.90
5429;DHT22;2737;52.386;9.980;2022-12-17T08:42:43;-2.90;99.90
5429;DHT22;2737;52.386;9.980;2022-12-17T08:45:28;-2.90;99.90
5429;DHT22;2737;52.386;9.980;2022-12-17T08:48:13;-2.90;99.90
5429;DHT22;2737;52.386;9.980;2022-12-17T08:51:10;-2.90;99.90
5429;DHT22;2737;52.386;9.980;2022-12-17T08:53:54;-2.80;99.90
5429;DHT22;2737;52.386;9.980;2022-12-17T08:56:38;-2.80;99.90
5429;DHT22;2737;52.386;9.980;2022-12-17T08:59:23;-2.70;99.90
5429;DHT22;2737;52.386;9.980;2022-12-17T09:02:08;-2.70;99.90
5429;DHT22;2737;52.386;9.980;2022-12-17T09:04:54;-2.70;99.90
5429;DHT22;2737;52.386;9.980;2022-12-17T09:07:39;-2.70;99.90
5429;DHT22;2737;52.386;9.980;2022-12-17T09:10:25;-2.70;99.90
5429;DHT22;2737;52.386;9.980;2022-12-17T09:13:10;-2.70;99.90
5429;DHT22;2737;52.386;9.980;2022-12-17T09:15:55;-2.70;99.90
5429;DHT22;2737;52.386;9.980;2022-12-17T09:18:44;-2.70;99.90
5429;DHT22;2737;52.386;9.980;2022-12-17T09:21:30;-2.70;99.90
5429;DHT22;2737;52.386;9.980;2022-12-17T09:24:15;-2.70;99.90
5429;DHT22;2737;52.386;9.980;2022-12-17T09:27:00;-2.60;99.90
5429;DHT22;2737;52.386;9.980;2022-12-17T09:29:44;-2.60;99.90
5429;DHT22;2737;52.386;9.980;2022-12-17T09:32:29;-2.60;99.90
5429;DHT22;2737;52.386;9.980;2022-12-17T09:35:14;-2.70;99.90
5429;DHT22;2737;52.386;9.980;2022-12-17T09:38:00;-2.70;99.90
5429;DHT22;2737;52.386;9.980;2022-12-17T09:40:46;-2.70;99.90
5429;DHT22;2737;52.386;9.980;2022-12-17T09:43:38;-2.70;99.90
5429;DHT22;2737;52.386;9.980;2022-12-17T09:46:28;-2.80;99.90
5429;DHT22;2737;52.386;9.980;2022-12-17T09:49:17;-2.80;99.90
5429;DHT22;2737;52.386;9.980;2022-12-17T09:52:07;-2.80;99.90
5429;DHT22;2737;52.386;9.980;2022-12-17T09:55:00;-2.80;99.90
5429;DHT22;2737;52.386;9.980;2022-12-17T09:57:45;-2.90;99.90
5429;DHT22;2737;52.386;9.980;2022-12-17T10:00:33;-2.90;99.90
5429;DHT22;2737;52.386;9.980;2022-12-17T10:03:20;-2.90;99.90
5429;DHT22;2737;52.386;9.980;2022-12-17T10:06:18;-2.90;99.90
5429;DHT22;2737;52.386;9.980;2022-12-17T10:09:11;-3.00;99.90
5429;DHT22;2737;52.386;9.980;2022-12-17T10:11:59;-3.00;99.90
5429;DHT22;2737;52.386;9.980;2022-12-17T10:14:46;-3.00;99.90
5429;DHT22;2737;52.386;9.980;2022-12-17T10:17:30;-3.00;99.90
5429;DHT22;2737;52.386;9.980;2022-12-17T10:20:20;-3.00;99.90
5429;DHT22;2737;52.386;9.980;2022-12-17T10:23:22;-3.00;99.90
5429;DHT22;2737;52.386;9.980;2022-12-17T10:26:07;-2.90;99.90
5429;DHT22;2737;52.386;9.980;2022-12-17T10:29:05;-2.90;99.90
5429;DHT22;2737;52.386;9.980;2022-12-17T10:31:50;-2.90;99.90
5429;DHT22;2737;52.386;9.980;2022-12-17T10:34:35;-2.90;99.90
5429;DHT22;2737;52.386;9.980;2022-12-17T10:37:20;-2.90;99.90
5429;DHT22;2737;52.386;9.980;2022-12-17T10:40:17;-2.80;99.90
5429;DHT22;2737;52.386;9.980;2022-12-17T10:46:04;-2.60;99.90
5429;DHT22;2737;52.386;9.980;2022-12-17T10:48:49;-2.50;99.90
5429;DHT22;2737;52.386;9.980;2022-12-17T10:51:35;-2.50;99.90
5429;DHT22;2737;52.386;9.980;2022-12-17T10:54:23;-2.40;99.90
5429;DHT22;2737;52.386;9.980;2022-12-17T10:57:29;-2.30;99.90
5429;DHT22;2737;52.386;9.980;2022-12-17T11:00:21;-2.30;99.90
5429;DHT22;2737;52.386;9.980;2022-12-17T11:03:24;-2.20;99.90
5429;DHT22;2737;52.386;9.980;2022-12-17T11:06:10;-2.10;99.90
5429;DHT22;2737;52.386;9.980;2022-12-17T11:08:56;-2.00;99.90
5429;DHT22;2737;52.386;9.980;2022-12-17T11:11:43;-1.90;99.90
5429;DHT22;2737;52.386;9.980;2022-12-17T11:14:28;-1.90;99.90
5429;DHT22;2737;52.386;9.980;2022-12-17T11:17:15;-1.80;99.90
5429;DHT22;2737;52.386;9.980;2022-12-17T11:20:07;-1.80;99.90
5429;DHT22;2737;52.386;9.980;2022-12-17T11:22:58;-1.70;99.90
5429;DHT22;2737;52.386;9.980;2022-12-17T11:25:49;-1.60;99.90
5429;DHT22;2737;52.386;9.980;2022-12-17T11:28:36;-1.60;99.90
5429;DHT22;2737;52.386;9.980;2022-12-17T11:31:43;-1.50;99.90
5429;DHT22;2737;52.386;9.980;2022-12-17T11:34:38;-1.50;99.90
5429;DHT22;2737;52.386;9.980;2022-12-17T11:37:37;-1.40;99.90
5429;DHT22;2737;52.386;9.980;2022-12-17T11:40:29;-1.40;99.90
5429;DHT22;2737;52.386;9.980;2022-12-17T11:43:20;-1.40;99.90
5429;DHT22;2737;52.386;9.980;2022-12-17T11:46:16;-1.30;99.90
5429;DHT22;2737;52.386;9.980;2022-12-17T11:49:07;-1.20;99.90
5429;DHT22;2737;52.386;9.980;2022-12-17T11:52:00;-1.20;99.90
5429;DHT22;2737;52.386;9.980;2022-12-17T11:55:05;-1.10;99.90
5429;DHT22;2737;52.386;9.980;2022-12-17T11:57:54;-1.10;99.90
5429;DHT22;2737;52.386;9.980;2022-12-17T12:00:44;-1.10;99.90
5429;DHT22;2737;52.386;9.980;2022-12-17T12:03:37;-1.00;99.90
5429;DHT22;2737;52.386;9.980;2022-12-17T12:06:32;-1.00;99.90
5429;DHT22;2737;52.386;9.980;2022-12-17T12:09:23;-0.90;99.90
5429;DHT22;2737;52.386;9.980;2022-12-17T12:12:19;-0.90;99.90
5429;DHT22;2737;52.386;9.980;2022-12-17T12:15:28;-0.80;99.90
5429;DHT22;2737;52.386;9.980;2022-12-17T12:18:24;-0.80;99.90
5429;DHT22;2737;52.386;9.980;2022-12-17T12:21:26;-0.70;99.90
5429;DHT22;2737;52.386;9.980;2022-12-17T12:24:31;-0.70;99.90
5429;DHT22;2737;52.386;9.980;2022-12-17T12:27:29;-0.60;99.90
5429;DHT22;2737;52.386;9.980;2022-12-17T12:30:16;-0.60;99.90
5429;DHT22;2737;52.386;9.980;2022-12-17T12:33:10;-0.60;99.90
5429;DHT22;2737;52.386;9.980;2022-12-17T12:36:00;-0.60;99.90
5429;DHT22;2737;52.386;9.980;2022-12-17T12:38:47;-0.60;99.90
5429;DHT22;2737;52.386;9.980;2022-12-17T12:41:39;-0.60;99.90
5429;DHT22;2737;52.386;9.980;2022-12-17T12:44:33;-0.60;99.90
5429;DHT22;2737;52.386;9.980;2022-12-17T12:47:24;-0.60;99.90
5429;DHT22;2737;52.386;9.980;2022-12-17T12:50:17;-0.60;99.90
5429;DHT22;2737;52.386;9.980;2022-12-17T12:53:03;-0.50;99.90
5429;DHT22;2737;52.386;9.980;2022-12-17T12:55:47;-0.50;99.90
5429;DHT22;2737;52.386;9.980;2022-12-17T12:58:33;-0.50;99.90
5429;DHT22;2737;52.386;9.980;2022-12-17T13:01:19;-0.50;99.90
5429;DHT22;2737;52.386;9.980;2022-12-17T13:04:26;-0.60;99.90
5429;DHT22;2737;52.386;9.980;2022-12-17T13:07:21;-0.60;99.90
5429;DHT22;2737;52.386;9.980;2022-12-17T13:09:50;-0.50;99.90
5429;DHT22;2737;52.386;9.980;2022-12-17T13:12:23;-0.60;99.90
5429;DHT22;2737;52.386;9.980;2022-12-17T13:14:55;-0.50;99.90
5429;DHT22;2737;52.386;9.980;2022-12-17T13:17:38;-0.50;99.90
5429;DHT22;2737;52.386;9.980;2022-12-17T13:20:24;-0.50;99.90
5429;DHT22;2737;52.386;9.980;2022-12-17T13:23:03;-0.60;99.90
5429;DHT22;2737;52.386;9.980;2022-12-17T13:25:30;-0.60;99.90
5429;DHT22;2737;52.386;9.980;2022-12-17T13:27:57;-0.60;99.90
5429;DHT22;2737;52.386;9.980;2022-12-17T13:30:33;-0.60;99.90
5429;DHT22;2737;52.386;9.980;2022-12-17T13:33:20;-0.60;99.90
5429;DHT22;2737;52.386;9.980;2022-12-17T13:35:59;-0.70;99.90
5429;DHT22;2737;52.386;9.980;2022-12-17T13:38:35;-0.70;99.90
5429;DHT22;2737;52.386;9.980;2022-12-17T13:41:07;-0.70;99.90
5429;DHT22;2737;52.386;9.980;2022-12-17T13:43:39;-0.70;99.90
5429;DHT22;2737;52.386;9.980;2022-12-17T13:46:17;-0.70;99.90
5429;DHT22;2737;52.386;9.980;2022-12-17T13:48:56;-0.80;99.90
5429;DHT22;2737;52.386;9.980;2022-12-17T13:51:25;-0.80;99.90
5429;DHT22;2737;52.386;9.980;2022-12-17T13:53:54;-0.80;99.90
5429;DHT22;2737;52.386;9.980;2022-12-17T13:56:23;-0.80;99.90
5429;DHT22;2737;52.386;9.980;2022-12-17T13:58:51;-0.90;99.90
5429;DHT22;2737;52.386;9.980;2022-12-17T14:01:18;-0.90;99.90
5429;DHT22;2737;52.386;9.980;2022-12-17T14:03:50;-0.90;99.90
5429;DHT22;2737;52.386;9.980;2022-12-17T14:06:19;-1.00;99.90
5429;DHT22;2737;52.386;9.980;2022-12-17T14:08:48;-1.00;99.90
5429;DHT22;2737;52.386;9.980;2022-12-17T14:11:16;-1.00;99.90
5429;DHT22;2737;52.386;9.980;2022-12-17T14:14:01;-1.10;99.90
5429;DHT22;2737;52.386;9.980;2022-12-17T14:16:29;-1.10;99.90
5429;DHT22;2737;52.386;9.980;2022-12-17T14:18:57;-1.10;99.90
5429;DHT22;2737;52.386;9.980;2022-12-17T14:21:27;-1.20;99.90
5429;DHT22;2737;52.386;9.980;2022-12-17T14:23:55;-1.20;99.90
5429;DHT22;2737;52.386;9.980;2022-12-17T14:26:23;-1.20;99.90
5429;DHT22;2737;52.386;9.980;2022-12-17T14:28:52;-1.20;99.90
5429;DHT22;2737;52.386;9.980;2022-12-17T14:31:21;-1.30;99.90
5429;DHT22;2737;52.386;9.980;2022-12-17T14:33:59;-1.30;99.90
5429;DHT22;2737;52.386;9.980;2022-12-17T14:36:33;-1.30;99.90
5429;DHT22;2737;52.386;9.980;2022-12-17T14:39:03;-1.30;99.90
5429;DHT22;2737;52.386;9.980;2022-12-17T14:41:37;-1.30;99.90
5429;DHT22;2737;52.386;9.980;2022-12-17T14:44:24;-1.40;99.90
5429;DHT22;2737;52.386;9.980;2022-12-17T14:47:05;-1.40;99.90
5429;DHT22;2737;52.386;9.980;2022-12-17T14:49:32;-1.50;99.90
5429;DHT22;2737;52.386;9.980;2022-12-17T14:52:11;-1.60;99.90
5429;DHT22;2737;52.386;9.980;2022-12-17T14:54:43;-1.60;99.90
5429;DHT22;2737;52.386;9.980;2022-12-17T14:57:18;-1.60;99.90
5429;DHT22;2737;52.386;9.980;2022-12-17T14:59:45;-1.70;99.90
5429;DHT22;2737;52.386;9.980;2022-12-17T15:02:19;-1.70;99.90
5429;DHT22;2737;52.386;9.980;2022-12-17T15:04:49;-1.70;99.90
5429;DHT22;2737;52.386;9.980;2022-12-17T15:07:22;-1.80;99.90
5429;DHT22;2737;52.386;9.980;2022-12-17T15:09:50;-1.80;99.90
5429;DHT22;2737;52.386;9.980;2022-12-17T15:12:17;-1.90;99.90
5429;DHT22;2737;52.386;9.980;2022-12-17T15:14:44;-1.90;99.90
5429;DHT22;2737;52.386;9.980;2022-12-17T15:17:12;-2.00;99.90
5429;DHT22;2737;52.386;9.980;2022-12-17T15:19:40;-2.00;99.90
5429;DHT22;2737;52.386;9.980;2022-12-17T15:22:12;-2.10;99.90
5429;DHT22;2737;52.386;9.980;2022-12-17T15:24:41;-2.10;99.90
5429;DHT22;2737;52.386;9.980;2022-12-17T15:27:11;-2.20;99.90
5429;DHT22;2737;52.386;9.980;2022-12-17T15:29:39;-2.20;99.90
5429;DHT22;2737;52.386;9.980;2022-12-17T15:32:06;-2.30;99.90
5429;DHT22;2737;52.386;9.980;2022-12-17T15:34:33;-2.30;99.90
5429;DHT22;2737;52.386;9.980;2022-12-17T15:37:00;-2.30;99.90
5429;DHT22;2737;52.386;9.980;2022-12-17T15:39:27;-2.40;99.90
5429;DHT22;2737;52.386;9.980;2022-12-17T15:41:55;-2.40;99.90
5429;DHT22;2737;52.386;9.980;2022-12-17T15:44:40;-2.40;99.90
5429;DHT22;2737;52.386;9.980;2022-12-17T15:47:07;-2.50;99.90
5429;DHT22;2737;52.386;9.980;2022-12-17T15:49:34;-2.50;99.90
5429;DHT22;2737;52.386;9.980;2022-12-17T15:52:01;-2.60;99.90
5429;DHT22;2737;52.386;9.980;2022-12-17T15:54:28;-2.60;99.90
5429;DHT22;2737;52.386;9.980;2022-12-17T15:56:57;-2.60;99.90
5429;DHT22;2737;52.386;9.980;2022-12-17T15:59:24;-2.70;99.90
5429;DHT22;2737;52.386;9.980;2022-12-17T16:01:51;-2.70;99.90
5429;DHT22;2737;52.386;9.980;2022-12-17T16:04:18;-2.70;99.90
5429;DHT22;2737;52.386;9.980;2022-12-17T16:06:45;-2.80;99.90
5429;DHT22;2737;52.386;9.980;2022-12-17T16:09:13;-2.80;99.90
5429;DHT22;2737;52.386;9.980;2022-12-17T16:11:40;-2.80;99.90
5429;DHT22;2737;52.386;9.980;2022-12-17T16:14:08;-2.90;99.90
5429;DHT22;2737;52.386;9.980;2022-12-17T16:16:35;-2.90;99.90
5429;DHT22;2737;52.386;9.980;2022-12-17T16:19:05;-3.00;99.90
5429;DHT22;2737;52.386;9.980;2022-12-17T16:21:32;-3.10;99.90
5429;DHT22;2737;52.386;9.980;2022-12-17T16:24:00;-3.10;99.90
5429;DHT22;2737;52.386;9.980;2022-12-17T16:26:27;-3.10;99.90
5429;DHT22;2737;52.386;9.980;2022-12-17T16:28:56;-3.20;99.90
5429;DHT22;2737;52.386;9.980;2022-12-17T16:31:24;-3.20;99.90
5429;DHT22;2737;52.386;9.980;2022-12-17T16:33:51;-3.20;99.90
5429;DHT22;2737;52.386;9.980;2022-12-17T16:36:20;-3.30;99.90
5429;DHT22;2737;52.386;9.980;2022-12-17T16:38:48;-3.30;99.90
5429;DHT22;2737;52.386;9.980;2022-12-17T16:41:16;-3.40;99.90
5429;DHT22;2737;52.386;9.980;2022-12-17T16:43:44;-3.40;99.90
5429;DHT22;2737;52.386;9.980;2022-12-17T16:46:25;-3.40;99.90
5429;DHT22;2737;52.386;9.980;2022-12-17T16:48:52;-3.40;99.90
5429;DHT22;2737;52.386;9.980;2022-12-17T16:51:21;-3.50;99.90
5429;DHT22;2737;52.386;9.980;2022-12-17T16:53:48;-3.50;99.90
5429;DHT22;2737;52.386;9.980;2022-12-17T16:56:16;-3.60;99.90
5429;DHT22;2737;52.386;9.980;2022-12-17T16:58:44;-3.60;99.90
5429;DHT22;2737;52.386;9.980;2022-12-17T17:01:11;-3.70;99.90
5429;DHT22;2737;52.386;9.980;2022-12-17T17:03:40;-3.70;99.90
5429;DHT22;2737;52.386;9.980;2022-12-17T17:06:08;-3.70;99.90
5429;DHT22;2737;52.386;9.980;2022-12-17T17:08:35;-3.70;99.90
5429;DHT22;2737;52.386;9.980;2022-12-17T17:11:08;-3.80;99.90
5429;DHT22;2737;52.386;9.980;2022-12-17T17:13:36;-3.80;99.90
5429;DHT22;2737;52.386;9.980;2022-12-17T17:16:03;-3.80;99.90
5429;DHT22;2737;52.386;9.980;2022-12-17T17:18:31;-3.80;99.90
5429;DHT22;2737;52.386;9.980;2022-12-17T17:21:25;-3.90;99.90
5429;DHT22;2737;52.386;9.980;2022-12-17T17:23:55;-3.90;99.90
5429;DHT22;2737;52.386;9.980;2022-12-17T17:26:22;-3.90;99.90
5429;DHT22;2737;52.386;9.980;2022-12-17T17:28:49;-3.90;99.90
5429;DHT22;2737;52.386;9.980;2022-12-17T17:31:17;-3.90;99.90
5429;DHT22;2737;52.386;9.980;2022-12-17T17:33:45;-4.00;99.90
5429;DHT22;2737;52.386;9.980;2022-12-17T17:36:16;-4.00;99.90
5429;DHT22;2737;52.386;9.980;2022-12-17T17:38:44;-4.00;99.90
5429;DHT22;2737;52.386;9.980;2022-12-17T17:41:13;-4.00;99.90
5429;DHT22;2737;52.386;9.980;2022-12-17T17:43:40;-4.00;99.90